CheckWX is a tool to help pilots better visualize weather data.  It is not intended as a substitute for an official pre-flight weather briefing.

06:30:12 UTC

KALW METAR
Walla Walla Regional Airport
Walla Walla, Washington, USA
Current

37 mins ago

KALW 230553Z AUTO 18012KT 10SM -RA OVC060 17/08 A3016 RMK AO2 RAB34 SLP210 P0000 60000 T01670078 10222 20167 51011
Observed
Apr-23 @ 05:53 UTC
Wind
  • 180° at 12 KTS
Visibility
10 SM
Flight Rules
VFR
Conditions
Light Rain
Cloud Levels
  • Overcast at 6,000' AGL
Temperature
17°C / 63°F
Dewpoint
C / 46°F
Humidity
56%
Altimeter
30.16" Hg
Pressure
1021.32 hPa
Current Rain
0.01"
Previous

2 hours ago

KALW 230453Z AUTO 19010KT 10SM OVC070 18/06 A3015 RMK AO2 SLP207 T01830061
Observed
Apr-23 @ 04:53 UTC
Wind
  • 190° at 10 KTS
Visibility
10 SM
Flight Rules
VFR
Cloud Levels
  • Overcast at 7,000' AGL
Temperature
18°C / 64°F
Dewpoint
C / 43°F
Humidity
46%
Altimeter
30.15" Hg
Pressure
1021.02 hPa
Previous

3 hours ago

KALW 230353Z AUTO 19010KT 10SM OVC080 19/05 A3013 RMK AO2 SLP202 T01890050
Observed
Apr-23 @ 03:53 UTC
Wind
  • 190° at 10 KTS
Visibility
10 SM
Flight Rules
VFR
Cloud Levels
  • Overcast at 8,000' AGL
Temperature
19°C / 66°F
Dewpoint
C / 41°F
Humidity
40%
Altimeter
30.13" Hg
Pressure
1020.32 hPa